sensor_id;sensor_type;location;lat;lon;timestamp;temperature;humidity
13982;DHT22;7065;50.880;5.502;2023-07-31T00:00:29;16.30;99.90
13982;DHT22;7065;50.880;5.502;2023-07-31T00:02:55;16.30;99.90
13982;DHT22;7065;50.880;5.502;2023-07-31T00:05:21;16.30;99.90
13982;DHT22;7065;50.880;5.502;2023-07-31T00:07:47;16.30;99.90
13982;DHT22;7065;50.880;5.502;2023-07-31T00:10:13;16.30;99.90
13982;DHT22;7065;50.880;5.502;2023-07-31T00:12:40;16.30;99.90
13982;DHT22;7065;50.880;5.502;2023-07-31T00:15:07;16.30;99.90
13982;DHT22;7065;50.880;5.502;2023-07-31T00:17:33;16.30;99.90
13982;DHT22;7065;50.880;5.502;2023-07-31T00:19:59;16.20;99.90
13982;DHT22;7065;50.880;5.502;2023-07-31T00:22:24;16.20;99.90
13982;DHT22;7065;50.880;5.502;2023-07-31T00:24:50;16.20;99.90
13982;DHT22;7065;50.880;5.502;2023-07-31T00:27:16;16.10;99.90
13982;DHT22;7065;50.880;5.502;2023-07-31T00:29:41;16.10;99.90
13982;DHT22;7065;50.880;5.502;2023-07-31T00:32:07;16.20;99.90
13982;DHT22;7065;50.880;5.502;2023-07-31T00:34:33;16.20;99.90
13982;DHT22;7065;50.880;5.502;2023-07-31T00:36:58;16.20;99.90
13982;DHT22;7065;50.880;5.502;2023-07-31T00:39:25;16.20;99.90
13982;DHT22;7065;50.880;5.502;2023-07-31T00:41:50;16.10;99.90
13982;DHT22;7065;50.880;5.502;2023-07-31T00:44:16;16.10;99.90
13982;DHT22;7065;50.880;5.502;2023-07-31T00:46:42;16.10;99.90
13982;DHT22;7065;50.880;5.502;2023-07-31T00:49:09;16.10;99.90
13982;DHT22;7065;50.880;5.502;2023-07-31T00:51:35;16.10;99.90
13982;DHT22;7065;50.880;5.502;2023-07-31T00:54:02;16.20;99.90
13982;DHT22;7065;50.880;5.502;2023-07-31T00:56:28;16.20;99.90
13982;DHT22;7065;50.880;5.502;2023-07-31T00:58:55;16.20;99.90
13982;DHT22;7065;50.880;5.502;2023-07-31T01:01:20;16.20;99.90
13982;DHT22;7065;50.880;5.502;2023-07-31T01:03:48;16.30;99.90
13982;DHT22;7065;50.880;5.502;2023-07-31T01:12:03;16.30;99.90
13982;DHT22;7065;50.880;5.502;2023-07-31T01:14:28;16.30;99.90
13982;DHT22;7065;50.880;5.502;2023-07-31T01:16:55;16.30;99.90
13982;DHT22;7065;50.880;5.502;2023-07-31T01:19:25;16.30;99.90
13982;DHT22;7065;50.880;5.502;2023-07-31T01:27:51;16.40;99.90
13982;DHT22;7065;50.880;5.502;2023-07-31T01:30:22;16.40;99.90
13982;DHT22;7065;50.880;5.502;2023-07-31T01:32:51;16.50;99.90
13982;DHT22;7065;50.880;5.502;2023-07-31T01:35:18;16.50;99.90
13982;DHT22;7065;50.880;5.502;2023-07-31T01:37:45;16.50;99.90
13982;DHT22;7065;50.880;5.502;2023-07-31T01:40:11;16.50;99.90
13982;DHT22;7065;50.880;5.502;2023-07-31T01:42:36;16.50;99.90
13982;DHT22;7065;50.880;5.502;2023-07-31T01:45:02;16.50;99.90
13982;DHT22;7065;50.880;5.502;2023-07-31T01:47:28;16.50;99.90
13982;DHT22;7065;50.880;5.502;2023-07-31T01:49:53;16.50;99.90
13982;DHT22;7065;50.880;5.502;2023-07-31T01:52:19;16.60;99.90
13982;DHT22;7065;50.880;5.502;2023-07-31T01:54:45;16.60;99.90
13982;DHT22;7065;50.880;5.502;2023-07-31T01:57:10;16.60;99.90
13982;DHT22;7065;50.880;5.502;2023-07-31T01:59:37;16.60;99.90
13982;DHT22;7065;50.880;5.502;2023-07-31T02:02:02;16.60;99.90
13982;DHT22;7065;50.880;5.502;2023-07-31T02:04:28;16.50;99.90
13982;DHT22;7065;50.880;5.502;2023-07-31T02:06:54;16.60;99.90
13982;DHT22;7065;50.880;5.502;2023-07-31T02:09:19;16.50;99.90
13982;DHT22;7065;50.880;5.502;2023-07-31T02:11:45;16.50;99.90
13982;DHT22;7065;50.880;5.502;2023-07-31T02:14:11;16.50;99.90
13982;DHT22;7065;50.880;5.502;2023-07-31T02:16:36;16.50;99.90
13982;DHT22;7065;50.880;5.502;2023-07-31T02:19:02;16.50;99.90
13982;DHT22;7065;50.880;5.502;2023-07-31T02:21:28;16.40;99.90
13982;DHT22;7065;50.880;5.502;2023-07-31T02:23:53;16.40;99.90
13982;DHT22;7065;50.880;5.502;2023-07-31T02:26:19;16.40;99.90
13982;DHT22;7065;50.880;5.502;2023-07-31T02:28:45;16.40;99.90
13982;DHT22;7065;50.880;5.502;2023-07-31T02:31:10;16.40;99.90
13982;DHT22;7065;50.880;5.502;2023-07-31T02:33:36;16.50;99.90
13982;DHT22;7065;50.880;5.502;2023-07-31T02:36:02;16.50;99.90
13982;DHT22;7065;50.880;5.502;2023-07-31T02:38:28;16.50;99.90
13982;DHT22;7065;50.880;5.502;2023-07-31T02:40:53;16.50;99.90
13982;DHT22;7065;50.880;5.502;2023-07-31T02:43:19;16.50;99.90
13982;DHT22;7065;50.880;5.502;2023-07-31T02:45:45;16.50;99.90
13982;DHT22;7065;50.880;5.502;2023-07-31T02:48:10;16.60;99.90
13982;DHT22;7065;50.880;5.502;2023-07-31T02:50:36;16.60;99.90
13982;DHT22;7065;50.880;5.502;2023-07-31T02:53:02;16.60;99.90
13982;DHT22;7065;50.880;5.502;2023-07-31T02:55:28;16.60;99.90
13982;DHT22;7065;50.880;5.502;2023-07-31T02:57:53;16.60;99.90
13982;DHT22;7065;50.880;5.502;2023-07-31T03:00:19;16.60;99.90
13982;DHT22;7065;50.880;5.502;2023-07-31T03:02:44;16.60;99.90
13982;DHT22;7065;50.880;5.502;2023-07-31T03:05:10;16.60;99.90
13982;DHT22;7065;50.880;5.502;2023-07-31T03:07:36;16.50;99.90
13982;DHT22;7065;50.880;5.502;2023-07-31T03:10:02;16.50;99.90
13982;DHT22;7065;50.880;5.502;2023-07-31T03:12:27;16.50;99.90
13982;DHT22;7065;50.880;5.502;2023-07-31T03:14:53;16.60;99.90
13982;DHT22;7065;50.880;5.502;2023-07-31T03:17:19;16.60;99.90
13982;DHT22;7065;50.880;5.502;2023-07-31T03:19:45;16.60;99.90
13982;DHT22;7065;50.880;5.502;2023-07-31T03:22:11;16.60;99.90
13982;DHT22;7065;50.880;5.502;2023-07-31T03:24:36;16.60;99.90
13982;DHT22;7065;50.880;5.502;2023-07-31T03:27:02;16.60;99.90
13982;DHT22;7065;50.880;5.502;2023-07-31T03:29:28;16.60;99.90
13982;DHT22;7065;50.880;5.502;2023-07-31T03:31:53;16.60;99.90
13982;DHT22;7065;50.880;5.502;2023-07-31T03:34:19;16.60;99.90
13982;DHT22;7065;50.880;5.502;2023-07-31T03:36:45;16.60;99.90
13982;DHT22;7065;50.880;5.502;2023-07-31T03:39:10;16.60;99.90
13982;DHT22;7065;50.880;5.502;2023-07-31T03:41:36;16.60;99.90
13982;DHT22;7065;50.880;5.502;2023-07-31T03:44:02;16.60;99.90
13982;DHT22;7065;50.880;5.502;2023-07-31T03:46:28;16.60;99.90
13982;DHT22;7065;50.880;5.502;2023-07-31T03:48:53;16.60;99.90
13982;DHT22;7065;50.880;5.502;2023-07-31T03:51:19;16.60;99.90
13982;DHT22;7065;50.880;5.502;2023-07-31T03:53:45;16.60;99.90
13982;DHT22;7065;50.880;5.502;2023-07-31T03:56:11;16.60;99.90
13982;DHT22;7065;50.880;5.502;2023-07-31T03:58:37;16.60;99.90
13982;DHT22;7065;50.880;5.502;2023-07-31T04:01:03;16.70;99.90
13982;DHT22;7065;50.880;5.502;2023-07-31T04:03:30;16.70;99.90
13982;DHT22;7065;50.880;5.502;2023-07-31T04:05:56;16.60;99.90
13982;DHT22;7065;50.880;5.502;2023-07-31T04:08:22;16.60;99.90
13982;DHT22;7065;50.880;5.502;2023-07-31T04:10:48;16.60;99.90
13982;DHT22;7065;50.880;5.502;2023-07-31T04:13:14;16.60;99.90
13982;DHT22;7065;50.880;5.502;2023-07-31T04:15:40;16.60;99.90
13982;DHT22;7065;50.880;5.502;2023-07-31T04:18:06;16.60;99.90
13982;DHT22;7065;50.880;5.502;2023-07-31T04:20:31;16.60;99.90
13982;DHT22;7065;50.880;5.502;2023-07-31T04:22:57;16.60;99.90
13982;DHT22;7065;50.880;5.502;2023-07-31T04:25:23;16.60;99.90
13982;DHT22;7065;50.880;5.502;2023-07-31T04:27:49;16.60;99.90
13982;DHT22;7065;50.880;5.502;2023-07-31T04:30:14;16.60;99.90
13982;DHT22;7065;50.880;5.502;2023-07-31T04:32:40;16.60;99.90
13982;DHT22;7065;50.880;5.502;2023-07-31T04:35:06;16.70;99.90
13982;DHT22;7065;50.880;5.502;2023-07-31T04:37:32;16.60;99.90
13982;DHT22;7065;50.880;5.502;2023-07-31T04:39:58;16.70;99.90
13982;DHT22;7065;50.880;5.502;2023-07-31T04:42:23;16.70;99.90
13982;DHT22;7065;50.880;5.502;2023-07-31T04:44:49;16.70;99.90
13982;DHT22;7065;50.880;5.502;2023-07-31T04:47:15;16.70;99.90
13982;DHT22;7065;50.880;5.502;2023-07-31T04:49:40;16.60;99.90
13982;DHT22;7065;50.880;5.502;2023-07-31T04:52:06;16.70;99.90
13982;DHT22;7065;50.880;5.502;2023-07-31T04:54:32;16.70;99.90
13982;DHT22;7065;50.880;5.502;2023-07-31T04:56:58;16.60;99.90
13982;DHT22;7065;50.880;5.502;2023-07-31T04:59:23;16.60;99.90
13982;DHT22;7065;50.880;5.502;2023-07-31T05:01:49;16.60;99.90
13982;DHT22;7065;50.880;5.502;2023-07-31T05:04:15;16.60;99.90
13982;DHT22;7065;50.880;5.502;2023-07-31T05:06:41;16.50;99.90
13982;DHT22;7065;50.880;5.502;2023-07-31T05:09:07;16.50;99.90
13982;DHT22;7065;50.880;5.502;2023-07-31T05:11:35;16.40;99.90
13982;DHT22;7065;50.880;5.502;2023-07-31T05:14:01;16.40;99.90
13982;DHT22;7065;50.880;5.502;2023-07-31T05:16:26;16.30;99.90
13982;DHT22;7065;50.880;5.502;2023-07-31T05:18:52;16.30;99.90
13982;DHT22;7065;50.880;5.502;2023-07-31T05:21:18;16.30;99.90
13982;DHT22;7065;50.880;5.502;2023-07-31T05:23:44;16.30;99.90
13982;DHT22;7065;50.880;5.502;2023-07-31T05:26:09;16.30;99.90
13982;DHT22;7065;50.880;5.502;2023-07-31T05:28:35;16.30;99.90
13982;DHT22;7065;50.880;5.502;2023-07-31T05:31:03;16.30;99.90
13982;DHT22;7065;50.880;5.502;2023-07-31T05:33:28;16.30;99.90
13982;DHT22;7065;50.880;5.502;2023-07-31T05:35:54;16.30;99.90
13982;DHT22;7065;50.880;5.502;2023-07-31T05:38:20;16.40;99.90
13982;DHT22;7065;50.880;5.502;2023-07-31T05:40:46;16.40;99.90
13982;DHT22;7065;50.880;5.502;2023-07-31T05:43:12;16.40;99.90
13982;DHT22;7065;50.880;5.502;2023-07-31T05:45:38;16.50;99.90
13982;DHT22;7065;50.880;5.502;2023-07-31T05:48:04;16.50;99.90
13982;DHT22;7065;50.880;5.502;2023-07-31T05:50:30;16.50;99.90
13982;DHT22;7065;50.880;5.502;2023-07-31T05:52:56;16.50;99.90
13982;DHT22;7065;50.880;5.502;2023-07-31T05:55:21;16.50;99.90
13982;DHT22;7065;50.880;5.502;2023-07-31T05:57:48;16.50;99.90
13982;DHT22;7065;50.880;5.502;2023-07-31T06:00:14;16.60;99.90
13982;DHT22;7065;50.880;5.502;2023-07-31T06:02:39;16.50;99.90
13982;DHT22;7065;50.880;5.502;2023-07-31T06:05:05;16.50;99.90
13982;DHT22;7065;50.880;5.502;2023-07-31T06:07:34;16.50;99.90
13982;DHT22;7065;50.880;5.502;2023-07-31T06:10:00;16.50;99.90
13982;DHT22;7065;50.880;5.502;2023-07-31T06:12:30;16.50;99.90
13982;DHT22;7065;50.880;5.502;2023-07-31T06:14:56;16.50;99.90
13982;DHT22;7065;50.880;5.502;2023-07-31T06:17:22;16.50;99.90
13982;DHT22;7065;50.880;5.502;2023-07-31T06:19:48;16.50;99.90
13982;DHT22;7065;50.880;5.502;2023-07-31T06:22:14;16.40;99.90
13982;DHT22;7065;50.880;5.502;2023-07-31T06:24:40;16.40;99.90
13982;DHT22;7065;50.880;5.502;2023-07-31T06:27:06;16.40;99.90
13982;DHT22;7065;50.880;5.502;2023-07-31T06:29:32;16.30;99.90
13982;DHT22;7065;50.880;5.502;2023-07-31T06:31:58;16.40;99.90
13982;DHT22;7065;50.880;5.502;2023-07-31T06:34:24;16.30;99.90
13982;DHT22;7065;50.880;5.502;2023-07-31T06:36:49;16.30;99.90
13982;DHT22;7065;50.880;5.502;2023-07-31T06:39:16;16.30;99.90
13982;DHT22;7065;50.880;5.502;2023-07-31T06:41:42;16.20;99.90
13982;DHT22;7065;50.880;5.502;2023-07-31T06:44:08;16.20;99.90
13982;DHT22;7065;50.880;5.502;2023-07-31T06:46:34;16.20;99.90
13982;DHT22;7065;50.880;5.502;2023-07-31T06:49:00;16.20;99.90
13982;DHT22;7065;50.880;5.502;2023-07-31T06:51:25;16.20;99.90
13982;DHT22;7065;50.880;5.502;2023-07-31T06:53:51;16.20;99.90
13982;DHT22;7065;50.880;5.502;2023-07-31T06:56:16;16.20;99.90
13982;DHT22;7065;50.880;5.502;2023-07-31T06:58:42;16.20;99.90
13982;DHT22;7065;50.880;5.502;2023-07-31T07:01:08;16.20;99.90
13982;DHT22;7065;50.880;5.502;2023-07-31T07:03:34;16.20;99.90
13982;DHT22;7065;50.880;5.502;2023-07-31T07:06:00;16.20;99.90
13982;DHT22;7065;50.880;5.502;2023-07-31T07:08:26;16.20;99.90
13982;DHT22;7065;50.880;5.502;2023-07-31T07:10:51;16.10;99.90
13982;DHT22;7065;50.880;5.502;2023-07-31T07:13:17;16.10;99.90
13982;DHT22;7065;50.880;5.502;2023-07-31T07:15:53;16.10;99.90
13982;DHT22;7065;50.880;5.502;2023-07-31T07:18:18;16.20;99.90
13982;DHT22;7065;50.880;5.502;2023-07-31T07:20:49;16.20;99.90
13982;DHT22;7065;50.880;5.502;2023-07-31T07:23:15;16.20;99.90
13982;DHT22;7065;50.880;5.502;2023-07-31T07:25:42;16.30;99.90
13982;DHT22;7065;50.880;5.502;2023-07-31T07:28:08;16.30;99.90
13982;DHT22;7065;50.880;5.502;2023-07-31T07:30:34;16.30;99.90
13982;DHT22;7065;50.880;5.502;2023-07-31T07:33:00;16.40;99.90
13982;DHT22;7065;50.880;5.502;2023-07-31T07:35:26;16.40;99.90
13982;DHT22;7065;50.880;5.502;2023-07-31T07:37:51;16.40;99.90
13982;DHT22;7065;50.880;5.502;2023-07-31T07:40:17;16.50;99.90
13982;DHT22;7065;50.880;5.502;2023-07-31T07:42:43;16.60;99.90
13982;DHT22;7065;50.880;5.502;2023-07-31T07:45:09;16.60;99.90
13982;DHT22;7065;50.880;5.502;2023-07-31T07:47:35;16.70;99.90
13982;DHT22;7065;50.880;5.502;2023-07-31T07:50:00;16.80;99.90
13982;DHT22;7065;50.880;5.502;2023-07-31T07:52:26;16.80;99.90
13982;DHT22;7065;50.880;5.502;2023-07-31T07:54:52;16.80;99.90
13982;DHT22;7065;50.880;5.502;2023-07-31T07:57:17;16.80;99.90
13982;DHT22;7065;50.880;5.502;2023-07-31T07:59:43;16.70;99.90
13982;DHT22;7065;50.880;5.502;2023-07-31T08:02:09;16.70;99.90
13982;DHT22;7065;50.880;5.502;2023-07-31T08:04:35;16.70;99.90
13982;DHT22;7065;50.880;5.502;2023-07-31T08:07:00;16.70;99.90
13982;DHT22;7065;50.880;5.502;2023-07-31T08:09:26;16.70;99.90
13982;DHT22;7065;50.880;5.502;2023-07-31T08:11:52;16.70;99.90
13982;DHT22;7065;50.880;5.502;2023-07-31T08:14:17;16.70;99.90
13982;DHT22;7065;50.880;5.502;2023-07-31T08:16:43;16.70;99.90
13982;DHT22;7065;50.880;5.502;2023-07-31T08:19:09;16.70;99.90
13982;DHT22;7065;50.880;5.502;2023-07-31T08:21:35;16.70;99.90
13982;DHT22;7065;50.880;5.502;2023-07-31T08:24:01;16.70;99.90
13982;DHT22;7065;50.880;5.502;2023-07-31T08:26:26;16.70;99.90
13982;DHT22;7065;50.880;5.502;2023-07-31T08:28:52;16.70;99.90
13982;DHT22;7065;50.880;5.502;2023-07-31T08:31:18;16.60;99.90
13982;DHT22;7065;50.880;5.502;2023-07-31T08:33:44;16.70;99.90
13982;DHT22;7065;50.880;5.502;2023-07-31T08:36:09;16.60;99.90
13982;DHT22;7065;50.880;5.502;2023-07-31T08:38:35;16.60;99.90
13982;DHT22;7065;50.880;5.502;2023-07-31T08:41:03;16.60;99.90
13982;DHT22;7065;50.880;5.502;2023-07-31T08:43:30;16.60;99.90
13982;DHT22;7065;50.880;5.502;2023-07-31T08:45:56;16.60;99.90
13982;DHT22;7065;50.880;5.502;2023-07-31T08:48:23;16.60;99.90
13982;DHT22;7065;50.880;5.502;2023-07-31T08:50:50;16.70;99.90
13982;DHT22;7065;50.880;5.502;2023-07-31T08:53:16;16.80;99.90
13982;DHT22;7065;50.880;5.502;2023-07-31T08:55:43;16.70;99.90
13982;DHT22;7065;50.880;5.502;2023-07-31T08:58:10;16.70;99.90
13982;DHT22;7065;50.880;5.502;2023-07-31T09:00:38;16.80;99.90
13982;DHT22;7065;50.880;5.502;2023-07-31T09:03:09;16.80;99.90
13982;DHT22;7065;50.880;5.502;2023-07-31T09:05:39;16.80;99.90
13982;DHT22;7065;50.880;5.502;2023-07-31T09:08:07;16.80;99.90
13982;DHT22;7065;50.880;5.502;2023-07-31T09:10:34;16.80;99.90
13982;DHT22;7065;50.880;5.502;2023-07-31T09:13:00;16.90;99.90
13982;DHT22;7065;50.880;5.502;2023-07-31T09:15:27;16.90;99.90
13982;DHT22;7065;50.880;5.502;2023-07-31T09:18:01;16.90;99.90
13982;DHT22;7065;50.880;5.502;2023-07-31T09:20:27;16.90;99.90
13982;DHT22;7065;50.880;5.502;2023-07-31T09:22:53;17.00;99.90
13982;DHT22;7065;50.880;5.502;2023-07-31T09:25:24;17.10;99.90
13982;DHT22;7065;50.880;5.502;2023-07-31T09:27:58;17.10;99.90
13982;DHT22;7065;50.880;5.502;2023-07-31T09:30:24;17.10;99.90
13982;DHT22;7065;50.880;5.502;2023-07-31T09:32:51;17.10;99.90
13982;DHT22;7065;50.880;5.502;2023-07-31T09:35:21;17.20;99.90
13982;DHT22;7065;50.880;5.502;2023-07-31T09:37:55;17.20;99.90
13982;DHT22;7065;50.880;5.502;2023-07-31T09:40:33;17.20;99.90
13982;DHT22;7065;50.880;5.502;2023-07-31T09:43:04;17.10;99.90
13982;DHT22;7065;50.880;5.502;2023-07-31T09:45:37;17.10;99.90
13982;DHT22;7065;50.880;5.502;2023-07-31T09:48:03;17.20;99.90
13982;DHT22;7065;50.880;5.502;2023-07-31T09:50:32;17.20;99.90
13982;DHT22;7065;50.880;5.502;2023-07-31T09:52:57;17.20;99.90
13982;DHT22;7065;50.880;5.502;2023-07-31T09:55:24;17.30;99.90
13982;DHT22;7065;50.880;5.502;2023-07-31T09:57:51;17.30;99.90
13982;DHT22;7065;50.880;5.502;2023-07-31T10:00:18;17.30;99.90
13982;DHT22;7065;50.880;5.502;2023-07-31T10:02:46;17.30;99.90
13982;DHT22;7065;50.880;5.502;2023-07-31T10:05:14;17.30;99.90
13982;DHT22;7065;50.880;5.502;2023-07-31T10:07:43;17.30;99.90
13982;DHT22;7065;50.880;5.502;2023-07-31T10:10:11;17.30;99.90
13982;DHT22;7065;50.880;5.502;2023-07-31T10:12:37;17.30;99.90
13982;DHT22;7065;50.880;5.502;2023-07-31T10:15:04;17.40;99.90
13982;DHT22;7065;50.880;5.502;2023-07-31T10:17:30;17.40;99.90
13982;DHT22;7065;50.880;5.502;2023-07-31T10:19:58;17.40;99.90
13982;DHT22;7065;50.880;5.502;2023-07-31T10:22:28;17.50;99.90
13982;DHT22;7065;50.880;5.502;2023-07-31T10:24:55;17.50;99.90
13982;DHT22;7065;50.880;5.502;2023-07-31T10:27:22;17.60;99.90
13982;DHT22;7065;50.880;5.502;2023-07-31T10:29:48;17.70;99.90
13982;DHT22;7065;50.880;5.502;2023-07-31T10:32:16;17.80;99.90
13982;DHT22;7065;50.880;5.502;2023-07-31T10:34:42;17.80;99.90
13982;DHT22;7065;50.880;5.502;2023-07-31T10:37:26;18.00;99.90
13982;DHT22;7065;50.880;5.502;2023-07-31T10:40:12;18.10;99.90
13982;DHT22;7065;50.880;5.502;2023-07-31T10:42:47;18.10;99.90
13982;DHT22;7065;50.880;5.502;2023-07-31T10:45:17;18.10;99.90
13982;DHT22;7065;50.880;5.502;2023-07-31T10:47:48;18.10;99.90
13982;DHT22;7065;50.880;5.502;2023-07-31T10:50:21;17.90;99.90
13982;DHT22;7065;50.880;5.502;2023-07-31T10:52:48;17.90;99.90
13982;DHT22;7065;50.880;5.502;2023-07-31T10:55:26;17.90;99.90
13982;DHT22;7065;50.880;5.502;2023-07-31T10:57:54;17.80;99.90
13982;DHT22;7065;50.880;5.502;2023-07-31T11:00:30;17.90;99.90
13982;DHT22;7065;50.880;5.502;2023-07-31T11:03:06;17.90;99.90
13982;DHT22;7065;50.880;5.502;2023-07-31T11:08:27;18.00;99.90
13982;DHT22;7065;50.880;5.502;2023-07-31T11:16:05;18.10;99.90
13982;DHT22;7065;50.880;5.502;2023-07-31T11:18:31;18.10;99.90
13982;DHT22;7065;50.880;5.502;2023-07-31T11:20:57;18.00;99.90
13982;DHT22;7065;50.880;5.502;2023-07-31T11:23:23;18.00;99.90
13982;DHT22;7065;50.880;5.502;2023-07-31T11:25:49;17.90;99.90
13982;DHT22;7065;50.880;5.502;2023-07-31T11:28:16;17.90;99.90
13982;DHT22;7065;50.880;5.502;2023-07-31T11:30:43;18.00;99.90
13982;DHT22;7065;50.880;5.502;2023-07-31T11:33:10;18.10;99.90
13982;DHT22;7065;50.880;5.502;2023-07-31T11:35:45;18.10;99.90
13982;DHT22;7065;50.880;5.502;2023-07-31T11:38:12;18.20;99.90
13982;DHT22;7065;50.880;5.502;2023-07-31T11:40:44;18.20;99.90
13982;DHT22;7065;50.880;5.502;2023-07-31T11:43:10;18.20;99.90
13982;DHT22;7065;50.880;5.502;2023-07-31T11:45:48;18.20;99.90
13982;DHT22;7065;50.880;5.502;2023-07-31T11:48:31;18.20;99.90
13982;DHT22;7065;50.880;5.502;2023-07-31T11:51:06;18.30;99.90
13982;DHT22;7065;50.880;5.502;2023-07-31T11:53:57;18.20;99.90
13982;DHT22;7065;50.880;5.502;2023-07-31T11:56:26;18.20;99.90
13982;DHT22;7065;50.880;5.502;2023-07-31T11:58:59;18.20;99.90
13982;DHT22;7065;50.880;5.502;2023-07-31T12:01:25;18.30;99.90
13982;DHT22;7065;50.880;5.502;2023-07-31T12:03:54;18.40;99.90
13982;DHT22;7065;50.880;5.502;2023-07-31T12:06:20;18.50;99.90
13982;DHT22;7065;50.880;5.502;2023-07-31T12:08:46;18.60;99.90
13982;DHT22;7065;50.880;5.502;2023-07-31T12:11:12;18.80;99.90
13982;DHT22;7065;50.880;5.502;2023-07-31T12:13:43;19.00;99.90
13982;DHT22;7065;50.880;5.502;2023-07-31T12:16:08;19.20;99.90
13982;DHT22;7065;50.880;5.502;2023-07-31T12:18:36;19.20;99.90
13982;DHT22;7065;50.880;5.502;2023-07-31T12:21:05;19.30;99.90
13982;DHT22;7065;50.880;5.502;2023-07-31T12:23:32;19.40;99.90
13982;DHT22;7065;50.880;5.502;2023-07-31T12:26:17;19.30;99.90
13982;DHT22;7065;50.880;5.502;2023-07-31T12:28:48;19.20;99.90
13982;DHT22;7065;50.880;5.502;2023-07-31T12:31:16;19.10;99.90
13982;DHT22;7065;50.880;5.502;2023-07-31T12:33:45;19.00;99.90
13982;DHT22;7065;50.880;5.502;2023-07-31T12:36:19;19.00;99.90
13982;DHT22;7065;50.880;5.502;2023-07-31T12:38:46;19.10;99.90
13982;DHT22;7065;50.880;5.502;2023-07-31T12:41:12;19.10;99.90
13982;DHT22;7065;50.880;5.502;2023-07-31T12:43:40;19.20;99.90
13982;DHT22;7065;50.880;5.502;2023-07-31T12:46:07;19.30;99.90
13982;DHT22;7065;50.880;5.502;2023-07-31T12:48:36;19.50;99.90
13982;DHT22;7065;50.880;5.502;2023-07-31T12:51:02;19.70;99.90
13982;DHT22;7065;50.880;5.502;2023-07-31T12:53:28;19.80;99.90
13982;DHT22;7065;50.880;5.502;2023-07-31T12:55:55;19.80;99.90
13982;DHT22;7065;50.880;5.502;2023-07-31T12:58:21;19.60;99.90
13982;DHT22;7065;50.880;5.502;2023-07-31T13:00:46;19.50;99.90
13982;DHT22;7065;50.880;5.502;2023-07-31T13:03:12;19.50;99.90
13982;DHT22;7065;50.880;5.502;2023-07-31T13:05:38;19.40;99.90
13982;DHT22;7065;50.880;5.502;2023-07-31T13:08:04;19.40;99.90
13982;DHT22;7065;50.880;5.502;2023-07-31T13:10:29;19.30;99.90
13982;DHT22;7065;50.880;5.502;2023-07-31T13:12:55;19.30;99.90
13982;DHT22;7065;50.880;5.502;2023-07-31T13:15:21;19.20;99.90
13982;DHT22;7065;50.880;5.502;2023-07-31T13:17:48;19.20;99.90
13982;DHT22;7065;50.880;5.502;2023-07-31T13:20:13;19.20;99.90
13982;DHT22;7065;50.880;5.502;2023-07-31T13:22:39;19.20;99.90
13982;DHT22;7065;50.880;5.502;2023-07-31T13:25:05;19.20;99.90
13982;DHT22;7065;50.880;5.502;2023-07-31T13:27:31;19.10;99.90
13982;DHT22;7065;50.880;5.502;2023-07-31T13:29:57;19.10;99.90
13982;DHT22;7065;50.880;5.502;2023-07-31T13:32:23;19.00;99.90
13982;DHT22;7065;50.880;5.502;2023-07-31T13:34:49;19.10;99.90
13982;DHT22;7065;50.880;5.502;2023-07-31T13:37:15;19.10;99.90
13982;DHT22;7065;50.880;5.502;2023-07-31T13:39:41;19.00;99.90
13982;DHT22;7065;50.880;5.502;2023-07-31T13:42:08;19.10;99.90
13982;DHT22;7065;50.880;5.502;2023-07-31T13:44:43;19.10;99.90
13982;DHT22;7065;50.880;5.502;2023-07-31T13:47:09;19.20;99.90
13982;DHT22;7065;50.880;5.502;2023-07-31T13:49:36;19.30;99.90
13982;DHT22;7065;50.880;5.502;2023-07-31T13:52:02;19.50;99.90
13982;DHT22;7065;50.880;5.502;2023-07-31T13:54:28;19.60;99.90
13982;DHT22;7065;50.880;5.502;2023-07-31T13:56:54;19.50;99.90
13982;DHT22;7065;50.880;5.502;2023-07-31T13:59:20;19.50;99.90
13982;DHT22;7065;50.880;5.502;2023-07-31T14:01:46;19.40;99.90
13982;DHT22;7065;50.880;5.502;2023-07-31T14:04:13;19.30;99.90
13982;DHT22;7065;50.880;5.502;2023-07-31T14:06:39;19.20;99.90
13982;DHT22;7065;50.880;5.502;2023-07-31T14:09:05;19.20;99.90
13982;DHT22;7065;50.880;5.502;2023-07-31T14:11:31;19.20;99.90
13982;DHT22;7065;50.880;5.502;2023-07-31T14:13:57;19.20;99.90
13982;DHT22;7065;50.880;5.502;2023-07-31T14:16:23;19.20;99.90
13982;DHT22;7065;50.880;5.502;2023-07-31T14:18:48;19.10;99.90
13982;DHT22;7065;50.880;5.502;2023-07-31T14:21:14;19.10;99.90
13982;DHT22;7065;50.880;5.502;2023-07-31T14:23:40;19.10;99.90
13982;DHT22;7065;50.880;5.502;2023-07-31T14:26:06;19.00;99.90
13982;DHT22;7065;50.880;5.502;2023-07-31T14:28:32;19.00;99.90
13982;DHT22;7065;50.880;5.502;2023-07-31T14:30:58;19.00;99.90
13982;DHT22;7065;50.880;5.502;2023-07-31T14:33:24;19.00;99.90
13982;DHT22;7065;50.880;5.502;2023-07-31T14:35:49;18.90;99.90
13982;DHT22;7065;50.880;5.502;2023-07-31T14:38:16;18.80;99.90
13982;DHT22;7065;50.880;5.502;2023-07-31T14:40:42;18.70;99.90
13982;DHT22;7065;50.880;5.502;2023-07-31T14:43:08;18.70;99.90
13982;DHT22;7065;50.880;5.502;2023-07-31T14:45:33;18.60;99.90
13982;DHT22;7065;50.880;5.502;2023-07-31T14:47:59;18.60;99.90
13982;DHT22;7065;50.880;5.502;2023-07-31T14:50:25;18.60;99.90
13982;DHT22;7065;50.880;5.502;2023-07-31T14:52:51;18.50;99.90
13982;DHT22;7065;50.880;5.502;2023-07-31T14:55:18;18.40;99.90
13982;DHT22;7065;50.880;5.502;2023-07-31T14:57:44;18.40;99.90
13982;DHT22;7065;50.880;5.502;2023-07-31T15:00:10;18.40;99.90
13982;DHT22;7065;50.880;5.502;2023-07-31T15:02:37;18.50;99.90
13982;DHT22;7065;50.880;5.502;2023-07-31T15:05:04;18.40;99.90
13982;DHT22;7065;50.880;5.502;2023-07-31T15:07:30;18.40;99.90
13982;DHT22;7065;50.880;5.502;2023-07-31T15:09:55;18.40;99.90
13982;DHT22;7065;50.880;5.502;2023-07-31T15:12:21;18.30;99.90
13982;DHT22;7065;50.880;5.502;2023-07-31T15:14:48;18.30;99.90
13982;DHT22;7065;50.880;5.502;2023-07-31T15:17:14;18.30;99.90
13982;DHT22;7065;50.880;5.502;2023-07-31T15:19:40;18.20;99.90
13982;DHT22;7065;50.880;5.502;2023-07-31T15:22:06;18.10;99.90
13982;DHT22;7065;50.880;5.502;2023-07-31T15:24:32;18.00;99.90
13982;DHT22;7065;50.880;5.502;2023-07-31T15:26:58;17.90;99.90
13982;DHT22;7065;50.880;5.502;2023-07-31T15:29:24;17.90;99.90
13982;DHT22;7065;50.880;5.502;2023-07-31T15:31:50;17.80;99.90
13982;DHT22;7065;50.880;5.502;2023-07-31T15:34:16;17.80;99.90
13982;DHT22;7065;50.880;5.502;2023-07-31T15:36:42;17.80;99.90
13982;DHT22;7065;50.880;5.502;2023-07-31T15:39:08;17.80;99.90
13982;DHT22;7065;50.880;5.502;2023-07-31T15:41:37;17.70;99.90
13982;DHT22;7065;50.880;5.502;2023-07-31T15:44:04;17.80;99.90
13982;DHT22;7065;50.880;5.502;2023-07-31T15:46:30;17.70;99.90
13982;DHT22;7065;50.880;5.502;2023-07-31T15:48:56;17.80;99.90
13982;DHT22;7065;50.880;5.502;2023-07-31T15:51:22;17.80;99.90
13982;DHT22;7065;50.880;5.502;2023-07-31T15:53:48;17.80;99.90
13982;DHT22;7065;50.880;5.502;2023-07-31T15:56:14;17.80;99.90
13982;DHT22;7065;50.880;5.502;2023-07-31T15:58:40;17.80;99.90
13982;DHT22;7065;50.880;5.502;2023-07-31T16:01:06;17.80;99.90